createdAt,value
2019-05-29T00:00:40.850Z,8.02
2019-05-29T00:01:40.834Z,8.01
2019-05-29T00:02:40.815Z,8.00
2019-05-29T00:03:40.802Z,7.97
2019-05-29T00:04:40.786Z,8.00
2019-05-29T00:05:40.791Z,7.86
2019-05-29T00:06:40.766Z,7.89
2019-05-29T00:07:40.744Z,7.82
2019-05-29T00:08:40.726Z,7.79
2019-05-29T00:09:40.711Z,7.86
2019-05-29T00:10:40.694Z,7.72
2019-05-29T00:11:40.676Z,7.74
2019-05-29T00:12:40.670Z,7.74
2019-05-29T00:13:40.654Z,7.82
2019-05-29T00:14:40.635Z,7.68
2019-05-29T00:15:40.619Z,7.75
2019-05-29T00:16:40.608Z,7.82
2019-05-29T00:17:40.594Z,7.86
2019-05-29T00:18:40.572Z,7.82
2019-05-29T00:19:40.564Z,7.86
2019-05-29T00:20:40.544Z,7.74
2019-05-29T00:21:40.528Z,7.72
2019-05-29T00:22:40.518Z,7.71
2019-05-29T00:23:40.500Z,7.68
2019-05-29T00:24:40.486Z,7.68
2019-05-29T00:25:40.467Z,7.69
2019-05-29T00:26:40.460Z,7.55
2019-05-29T00:27:40.445Z,7.67
2019-05-29T00:28:40.428Z,7.64
2019-05-29T00:29:40.406Z,7.64
2019-05-29T00:30:40.394Z,7.57
2019-05-29T00:31:40.378Z,7.63
2019-05-29T00:32:40.366Z,7.61
2019-05-29T00:33:40.353Z,7.64
2019-05-29T00:34:40.334Z,7.58
2019-05-29T00:35:40.316Z,7.64
2019-05-29T00:36:40.306Z,7.61
2019-05-29T00:37:40.290Z,7.64
2019-05-29T00:38:40.274Z,7.57
2019-05-29T00:39:40.263Z,7.64
2019-05-29T00:40:40.242Z,7.53
2019-05-29T00:41:40.236Z,7.55
2019-05-29T00:42:40.226Z,7.45
2019-05-29T00:43:40.200Z,7.50
2019-05-29T00:44:40.180Z,7.50
2019-05-29T00:45:40.174Z,7.43
2019-05-29T00:46:40.153Z,7.49
2019-05-29T00:47:40.134Z,7.43
2019-05-29T00:48:40.126Z,7.49
2019-05-29T00:49:40.101Z,7.42
2019-05-29T00:50:40.093Z,7.37
2019-05-29T00:51:40.077Z,7.35
2019-05-29T00:52:40.068Z,7.35
2019-05-29T00:53:40.047Z,7.32
2019-05-29T00:54:40.031Z,7.34
2019-05-29T00:55:40.014Z,7.31
2019-05-29T00:56:40.003Z,7.23
2019-05-29T00:57:39.981Z,7.25
2019-05-29T00:58:41.494Z,7.27
2019-05-29T00:59:39.950Z,7.17
2019-05-29T01:00:39.940Z,7.20
2019-05-29T01:01:39.920Z,7.23
2019-05-29T01:02:39.922Z,7.17
2019-05-29T01:03:39.892Z,7.23
2019-05-29T01:04:39.873Z,7.20
2019-05-29T01:05:39.865Z,7.16
2019-05-29T01:06:39.848Z,7.24
2019-05-29T01:07:39.833Z,7.25
2019-05-29T01:08:39.813Z,7.30
2019-05-29T01:09:39.800Z,7.20
2019-05-29T01:10:39.783Z,7.25
2019-05-29T01:11:39.769Z,7.32
2019-05-29T01:12:39.754Z,7.28
2019-05-29T01:13:39.738Z,7.20
2019-05-29T01:14:49.649Z,7.24
2019-05-29T01:15:39.706Z,7.35
2019-05-29T01:16:39.692Z,7.21
2019-05-29T01:17:39.679Z,7.32
2019-05-29T01:18:39.670Z,7.28
2019-05-29T01:19:39.649Z,7.27
2019-05-29T01:20:39.631Z,7.20
2019-05-29T01:21:39.612Z,7.21
2019-05-29T01:22:39.598Z,7.28
2019-05-29T01:23:39.584Z,7.31
2019-05-29T01:24:39.573Z,7.23
2019-05-29T01:25:39.553Z,7.30
2019-05-29T01:26:39.545Z,7.34
2019-05-29T01:27:39.519Z,7.35
2019-05-29T01:28:39.506Z,7.32
2019-05-29T01:29:39.491Z,7.37
2019-05-29T01:30:39.478Z,7.34
2019-05-29T01:31:39.459Z,7.37
2019-05-29T01:32:39.457Z,7.31
2019-05-29T01:33:39.431Z,7.27
2019-05-29T01:34:39.419Z,7.28
2019-05-29T01:35:39.401Z,7.21
2019-05-29T01:36:39.385Z,7.30
2019-05-29T01:37:39.368Z,7.21
2019-05-29T01:38:39.364Z,7.24
2019-05-29T01:39:39.339Z,7.23
2019-05-29T01:40:39.328Z,7.31
2019-05-29T01:41:39.307Z,7.39
2019-05-29T01:42:39.292Z,7.34
2019-05-29T01:43:39.278Z,7.43
2019-05-29T01:44:39.264Z,7.46
2019-05-29T01:45:39.249Z,7.46
2019-05-29T01:46:39.227Z,7.49
2019-05-29T01:47:39.217Z,7.58
2019-05-29T01:48:39.199Z,7.55
2019-05-29T01:49:39.184Z,7.58
2019-05-29T01:50:39.164Z,7.50
2019-05-29T01:51:39.159Z,7.61
2019-05-29T01:52:39.141Z,7.64
2019-05-29T01:53:39.124Z,7.67
2019-05-29T01:54:39.109Z,7.63
2019-05-29T01:55:39.090Z,7.69
2019-05-29T01:56:39.123Z,7.68
2019-05-29T01:57:39.064Z,7.72
2019-05-29T01:58:39.045Z,7.68
2019-05-29T01:59:39.031Z,7.69
2019-05-29T02:00:39.015Z,7.75
2019-05-29T02:01:39.006Z,7.79
2019-05-29T02:02:38.984Z,7.72
2019-05-29T02:03:38.968Z,7.75
2019-05-29T02:04:38.950Z,7.83
2019-05-29T02:05:38.939Z,7.77
2019-05-29T02:06:38.926Z,7.77
2019-05-29T02:07:38.908Z,7.75
2019-05-29T02:08:38.898Z,7.74
2019-05-29T02:09:38.878Z,7.71
2019-05-29T02:10:38.865Z,7.71
2019-05-29T02:11:38.849Z,7.83
2019-05-29T02:12:38.835Z,7.74
2019-05-29T02:13:38.819Z,7.67
2019-05-29T02:14:38.800Z,7.68
2019-05-29T02:15:38.787Z,7.67
2019-05-29T02:16:38.773Z,7.75
2019-05-29T02:17:38.752Z,7.64
2019-05-29T02:18:38.739Z,7.69
2019-05-29T02:19:38.726Z,7.67
2019-05-29T02:20:38.710Z,7.68
2019-05-29T02:21:38.699Z,7.64
2019-05-29T02:22:38.690Z,7.74
2019-05-29T02:23:38.675Z,7.79
2019-05-29T02:24:38.651Z,7.71
2019-05-29T02:25:38.632Z,7.77
2019-05-29T02:26:38.616Z,7.74
2019-05-29T02:27:38.608Z,7.79
2019-05-29T02:28:38.590Z,7.80
2019-05-29T02:29:38.578Z,7.79
2019-05-29T02:30:38.560Z,7.68
2019-05-29T02:31:38.561Z,7.77
2019-05-29T02:32:38.537Z,7.69
2019-05-29T02:33:38.515Z,7.67
2019-05-29T02:34:38.497Z,7.69
2019-05-29T02:35:38.484Z,7.64
2019-05-29T02:36:38.468Z,7.64
2019-05-29T02:37:38.455Z,7.48
2019-05-29T02:38:38.442Z,7.53
2019-05-29T02:39:38.417Z,7.58
2019-05-29T02:40:38.408Z,7.48
2019-05-29T02:41:38.388Z,7.49
2019-05-29T02:42:38.374Z,7.49
2019-05-29T02:43:38.369Z,7.48
2019-05-29T02:44:38.355Z,7.45
2019-05-29T02:45:53.676Z,7.46
2019-05-29T02:46:38.319Z,7.45
2019-05-29T02:47:38.307Z,7.48
2019-05-29T02:48:38.296Z,7.49
2019-05-29T02:49:38.275Z,7.45
2019-05-29T02:50:38.255Z,7.35
2019-05-29T02:51:38.247Z,7.34
2019-05-29T02:52:38.245Z,7.35
2019-05-29T02:53:38.205Z,7.32
2019-05-29T02:54:38.192Z,7.40
2019-05-29T02:55:38.182Z,7.39
2019-05-29T02:56:42.256Z,7.34
2019-05-29T02:57:38.150Z,7.48
2019-05-29T02:58:38.132Z,7.40
2019-05-29T02:59:38.118Z,7.42
2019-05-29T03:00:38.104Z,7.42
2019-05-29T03:01:38.087Z,7.46
2019-05-29T03:02:38.070Z,7.48
2019-05-29T03:03:39.870Z,7.46
2019-05-29T03:04:38.041Z,7.43
2019-05-29T03:05:38.031Z,7.35
2019-05-29T03:06:38.009Z,7.34
2019-05-29T03:07:37.992Z,7.34
2019-05-29T03:08:37.979Z,7.34
2019-05-29T03:09:37.967Z,7.32
2019-05-29T03:10:37.947Z,7.28
2019-05-29T03:11:37.932Z,7.28
2019-05-29T03:12:37.918Z,7.27
2019-05-29T03:13:37.906Z,7.24
2019-05-29T03:14:37.896Z,7.25
2019-05-29T03:15:37.872Z,7.21
2019-05-29T03:16:37.855Z,7.28
2019-05-29T03:17:37.840Z,7.31
2019-05-29T03:18:37.822Z,7.25
2019-05-29T03:19:37.820Z,7.30
2019-05-29T03:20:37.795Z,7.23
2019-05-29T03:21:37.780Z,7.12
2019-05-29T03:22:37.762Z,7.23
2019-05-29T03:23:37.756Z,7.20
2019-05-29T03:24:37.731Z,7.21
2019-05-29T03:25:37.720Z,7.20
2019-05-29T03:26:38.346Z,7.21
2019-05-29T03:27:38.407Z,7.17
2019-05-29T03:28:38.218Z,7.16
2019-05-29T03:29:38.501Z,7.20
2019-05-29T03:30:45.431Z,7.20
2019-05-29T03:31:46.027Z,7.21
2019-05-29T03:32:46.217Z,7.12
2019-05-29T03:33:44.851Z,7.20
2019-05-29T03:34:44.871Z,7.10
2019-05-29T03:35:46.231Z,7.13
2019-05-29T03:36:43.895Z,7.09
2019-05-29T03:37:38.826Z,7.07
2019-05-29T03:38:38.572Z,7.09
2019-05-29T03:39:38.590Z,7.06
2019-05-29T03:40:38.677Z,7.12
2019-05-29T03:41:39.018Z,7.09
2019-05-29T03:42:39.038Z,7.16
2019-05-29T03:43:38.689Z,7.17
2019-05-29T03:44:38.677Z,7.17
2019-05-29T03:45:38.094Z,7.16
2019-05-29T03:46:43.010Z,7.16
2019-05-29T03:47:37.463Z,7.16
2019-05-29T03:48:38.541Z,7.20
2019-05-29T03:49:37.496Z,7.10
2019-05-29T03:50:38.394Z,7.15
2019-05-29T03:51:38.975Z,7.10
2019-05-29T03:52:38.997Z,7.06
2019-05-29T03:53:38.406Z,6.99
2019-05-29T03:54:38.752Z,6.94
2019-05-29T03:55:37.881Z,6.97
2019-05-29T03:56:38.773Z,6.80
2019-05-29T03:57:38.084Z,6.98
2019-05-29T03:58:37.811Z,6.87
2019-05-29T03:59:37.499Z,6.87
2019-05-29T04:00:45.542Z,6.88
2019-05-29T04:01:37.555Z,6.92
2019-05-29T04:02:38.175Z,6.87
2019-05-29T04:03:38.153Z,6.94
2019-05-29T04:04:38.227Z,6.98
2019-05-29T04:05:37.990Z,7.02
2019-05-29T04:06:37.562Z,6.95
2019-05-29T04:07:38.066Z,7.05
2019-05-29T04:08:38.383Z,6.97
2019-05-29T04:09:37.401Z,7.05
2019-05-29T04:10:37.930Z,7.07
2019-05-29T04:11:37.822Z,7.09
2019-05-29T04:12:38.072Z,7.12
2019-05-29T04:13:38.737Z,7.20
2019-05-29T04:14:37.873Z,7.23
2019-05-29T04:15:38.619Z,7.17
2019-05-29T04:16:57.767Z,7.16
2019-05-29T04:17:37.922Z,7.15
2019-05-29T04:18:38.116Z,7.12
2019-05-29T04:19:38.395Z,7.17
2019-05-29T04:20:38.787Z,7.15
2019-05-29T04:21:38.741Z,7.20
2019-05-29T04:22:38.262Z,7.12
2019-05-29T04:23:38.103Z,7.21
2019-05-29T04:24:38.222Z,7.20
2019-05-29T04:25:40.614Z,7.07
2019-05-29T04:26:37.975Z,7.09
2019-05-29T04:27:38.314Z,7.15
2019-05-29T04:28:37.352Z,7.06
2019-05-29T04:29:38.241Z,7.09
2019-05-29T04:30:38.668Z,7.12
2019-05-29T04:31:38.316Z,7.06
2019-05-29T04:32:37.144Z,6.98
2019-05-29T04:33:36.841Z,6.99
2019-05-29T04:34:37.977Z,6.99
2019-05-29T04:35:36.994Z,7.02
2019-05-29T04:36:36.960Z,6.97
2019-05-29T04:37:37.158Z,6.91
2019-05-29T04:38:39.735Z,6.84
2019-05-29T04:39:36.981Z,6.87
2019-05-29T04:40:37.453Z,6.89
2019-05-29T04:41:37.113Z,6.94
2019-05-29T04:42:37.560Z,6.92
2019-05-29T04:43:37.543Z,6.97
2019-05-29T04:44:38.948Z,6.91
2019-05-29T04:45:39.136Z,6.97
2019-05-29T04:46:38.335Z,6.94
2019-05-29T04:47:37.330Z,6.95
2019-05-29T04:48:38.385Z,7.02
2019-05-29T04:49:37.934Z,6.97
2019-05-29T04:50:38.167Z,6.99
2019-05-29T04:51:37.340Z,7.05
2019-05-29T04:52:37.968Z,7.06
2019-05-29T04:53:37.753Z,7.02
2019-05-29T04:54:37.639Z,6.98
2019-05-29T04:55:36.999Z,6.99
2019-05-29T04:56:37.008Z,6.98
2019-05-29T04:57:37.203Z,7.02
2019-05-29T04:58:37.021Z,7.07
2019-05-29T04:59:37.117Z,6.97
2019-05-29T05:00:37.234Z,6.99
2019-05-29T05:01:37.116Z,7.05
2019-05-29T05:02:37.279Z,7.13
2019-05-29T05:03:37.181Z,7.12
2019-05-29T05:04:37.261Z,7.06
2019-05-29T05:05:37.367Z,7.05
2019-05-29T05:06:37.298Z,7.09
2019-05-29T05:07:37.349Z,7.07
2019-05-29T05:08:36.108Z,7.15
2019-05-29T05:09:36.096Z,7.02
2019-05-29T05:10:36.078Z,6.92
2019-05-29T05:11:36.062Z,6.98
2019-05-29T05:12:36.042Z,7.03
2019-05-29T05:13:36.033Z,7.03
2019-05-29T05:14:36.021Z,6.94
2019-05-29T05:15:36.088Z,7.05
2019-05-29T05:16:35.988Z,6.95
2019-05-29T05:17:36.141Z,6.98
2019-05-29T05:18:35.955Z,6.98
2019-05-29T05:19:36.010Z,6.94
2019-05-29T05:20:36.339Z,6.99
2019-05-29T05:21:36.054Z,6.97
2019-05-29T05:22:36.329Z,6.92
2019-05-29T05:23:36.156Z,6.98
2019-05-29T05:24:36.376Z,6.98
2019-05-29T05:25:36.399Z,6.98
2019-05-29T05:26:36.301Z,7.07
2019-05-29T05:27:36.462Z,7.12
2019-05-29T05:28:36.471Z,7.16
2019-05-29T05:29:36.319Z,7.16
2019-05-29T05:30:36.437Z,7.10
2019-05-29T05:31:36.487Z,7.13
2019-05-29T05:32:36.847Z,7.16
2019-05-29T05:33:36.738Z,7.16
2019-05-29T05:34:36.890Z,7.21
2019-05-29T05:35:36.811Z,7.17
2019-05-29T05:36:36.734Z,7.21
2019-05-29T05:37:36.851Z,7.31
2019-05-29T05:38:36.691Z,7.27
2019-05-29T05:39:37.184Z,7.31
2019-05-29T05:40:38.512Z,7.23
2019-05-29T05:41:36.807Z,7.39
2019-05-29T05:42:35.576Z,7.25
2019-05-29T05:43:35.558Z,7.20
2019-05-29T05:44:35.544Z,7.31
2019-05-29T05:45:35.531Z,7.25
2019-05-29T05:46:35.517Z,7.34
2019-05-29T05:47:50.452Z,7.42
2019-05-29T05:48:35.485Z,7.31
2019-05-29T05:49:35.486Z,7.31
2019-05-29T05:50:35.452Z,7.35
2019-05-29T05:51:38.248Z,7.34
2019-05-29T05:52:35.417Z,7.40
2019-05-29T05:53:35.454Z,7.39
2019-05-29T05:54:35.427Z,7.31
2019-05-29T05:55:35.520Z,7.37
2019-05-29T05:56:35.664Z,7.35
2019-05-29T05:57:35.605Z,7.24
2019-05-29T05:58:35.723Z,7.31
2019-05-29T05:59:35.773Z,7.23
2019-05-29T06:00:35.789Z,7.21
2019-05-29T06:01:35.880Z,7.17
2019-05-29T06:02:35.930Z,7.07
2019-05-29T06:03:35.926Z,7.12
2019-05-29T06:04:35.905Z,7.09
2019-05-29T06:05:36.085Z,7.03
2019-05-29T06:06:36.170Z,7.10
2019-05-29T06:07:36.074Z,7.17
2019-05-29T06:08:36.113Z,7.20
2019-05-29T06:09:36.164Z,7.17
2019-05-29T06:10:36.128Z,7.27
2019-05-29T06:11:36.104Z,7.25
2019-05-29T06:12:36.412Z,7.31
2019-05-29T06:13:36.230Z,7.37
2019-05-29T06:14:36.377Z,7.35
2019-05-29T06:15:35.061Z,7.46
2019-05-29T06:16:35.044Z,7.55
2019-05-29T06:17:35.030Z,7.53
2019-05-29T06:18:35.016Z,7.69
2019-05-29T06:19:35.058Z,7.61
2019-05-29T06:20:34.985Z,7.68
2019-05-29T06:21:34.967Z,7.63
2019-05-29T06:22:34.973Z,7.72
2019-05-29T06:23:34.939Z,7.77
2019-05-29T06:24:35.081Z,7.83
2019-05-29T06:25:36.914Z,7.71
2019-05-29T06:26:34.945Z,7.71
2019-05-29T06:27:35.143Z,7.80
2019-05-29T06:28:35.082Z,7.77
2019-05-29T06:29:35.234Z,7.74
2019-05-29T06:30:36.582Z,7.86
2019-05-29T06:31:35.236Z,7.77
2019-05-29T06:32:35.354Z,7.83
2019-05-29T06:33:35.293Z,7.80
2019-05-29T06:34:35.676Z,7.77
2019-05-29T06:35:35.848Z,7.80
2019-05-29T06:36:35.491Z,7.74
2019-05-29T06:37:35.534Z,7.79
2019-05-29T06:38:35.603Z,7.79
2019-05-29T06:39:35.528Z,7.82
2019-05-29T06:40:36.092Z,7.80
2019-05-29T06:41:35.604Z,7.74
2019-05-29T06:42:35.724Z,7.68
2019-05-29T06:43:35.726Z,7.64
2019-05-29T06:44:36.400Z,7.58
2019-05-29T06:45:35.691Z,7.68
2019-05-29T06:46:36.062Z,7.53
2019-05-29T06:47:36.267Z,7.60
2019-05-29T06:48:53.528Z,7.57
2019-05-29T06:49:34.545Z,7.53
2019-05-29T06:50:35.278Z,7.57
2019-05-29T06:51:35.182Z,7.48
2019-05-29T06:52:35.359Z,7.64
2019-05-29T06:53:35.688Z,7.71
2019-05-29T06:54:35.644Z,7.68
2019-05-29T06:55:35.741Z,7.69
2019-05-29T06:56:35.470Z,7.77
2019-05-29T06:57:35.888Z,7.80
2019-05-29T06:58:34.397Z,7.72
2019-05-29T06:59:34.389Z,7.79
2019-05-29T07:00:35.777Z,7.71
2019-05-29T07:01:35.225Z,7.67
2019-05-29T07:02:34.342Z,7.61
2019-05-29T07:03:35.502Z,7.64
2019-05-29T07:04:34.306Z,7.68
2019-05-29T07:05:35.513Z,7.58
2019-05-29T07:06:34.275Z,7.69
2019-05-29T07:07:34.256Z,7.63
2019-05-29T07:08:39.972Z,7.68
2019-05-29T07:09:34.234Z,7.63
2019-05-29T07:10:34.211Z,7.77
2019-05-29T07:11:34.193Z,7.77
2019-05-29T07:12:34.190Z,7.82
2019-05-29T07:13:35.453Z,7.79
2019-05-29T07:14:34.153Z,7.86
2019-05-29T07:15:34.141Z,7.86
2019-05-29T07:16:45.305Z,7.89
2019-05-29T07:17:34.107Z,7.89
2019-05-29T07:18:34.098Z,7.82
2019-05-29T07:19:47.457Z,7.90
2019-05-29T07:20:34.057Z,7.97
2019-05-29T07:21:34.050Z,7.95
2019-05-29T07:22:34.037Z,8.02
2019-05-29T07:23:34.019Z,7.95
2019-05-29T07:24:34.026Z,7.98
2019-05-29T07:25:33.987Z,7.95
2019-05-29T07:26:33.973Z,8.01
2019-05-29T07:27:33.952Z,8.07
2019-05-29T07:28:33.940Z,8.04
2019-05-29T07:29:33.923Z,8.00
2019-05-29T07:30:33.905Z,8.04
2019-05-29T07:31:33.922Z,7.98
2019-05-29T07:32:33.873Z,8.07
2019-05-29T07:33:33.867Z,8.10
2019-05-29T07:34:49.753Z,8.12
2019-05-29T07:35:33.829Z,8.11
2019-05-29T07:36:33.814Z,8.11
2019-05-29T07:37:33.803Z,8.19
2019-05-29T07:38:33.790Z,8.18
2019-05-29T07:39:33.771Z,8.19
2019-05-29T07:40:35.816Z,8.20
2019-05-29T07:41:33.741Z,8.19
2019-05-29T07:42:33.726Z,8.29
2019-05-29T07:43:33.708Z,8.25
2019-05-29T07:44:33.697Z,8.19
2019-05-29T07:45:33.678Z,8.26
2019-05-29T07:46:33.663Z,8.36
2019-05-29T07:47:33.649Z,8.19
2019-05-29T07:48:33.634Z,8.20
2019-05-29T07:49:39.223Z,8.30
2019-05-29T07:50:33.614Z,8.19
2019-05-29T07:51:33.596Z,8.40
2019-05-29T07:52:33.579Z,8.26
2019-05-29T07:53:33.814Z,8.28
2019-05-29T07:54:33.546Z,8.33
2019-05-29T07:55:33.526Z,8.28
2019-05-29T07:56:33.513Z,8.30
2019-05-29T07:57:33.497Z,8.36
2019-05-29T07:58:33.484Z,8.38
2019-05-29T07:59:33.467Z,8.48
2019-05-29T08:00:35.909Z,8.50
2019-05-29T08:01:33.434Z,8.50
2019-05-29T08:02:33.418Z,8.47
2019-05-29T08:03:33.406Z,8.58
2019-05-29T08:04:33.387Z,8.66
2019-05-29T08:05:33.374Z,8.63
2019-05-29T08:06:33.360Z,8.65
2019-05-29T08:07:33.348Z,8.76
2019-05-29T08:08:33.331Z,8.76
2019-05-29T08:09:33.315Z,8.63
2019-05-29T08:10:33.302Z,8.77
2019-05-29T08:11:33.285Z,8.84
2019-05-29T08:12:33.267Z,8.84
2019-05-29T08:13:33.255Z,8.80
2019-05-29T08:14:33.246Z,8.84
2019-05-29T08:15:33.226Z,8.66
2019-05-29T08:16:33.208Z,8.77
2019-05-29T08:17:33.193Z,8.84
2019-05-29T08:18:33.177Z,8.71
2019-05-29T08:19:33.167Z,8.74
2019-05-29T08:20:33.149Z,8.68
2019-05-29T08:21:33.134Z,8.70
2019-05-29T08:22:34.418Z,8.66
2019-05-29T08:23:33.103Z,8.71
2019-05-29T08:24:33.087Z,8.80
2019-05-29T08:25:33.078Z,8.71
2019-05-29T08:26:33.062Z,8.79
2019-05-29T08:27:33.046Z,8.83
2019-05-29T08:28:33.032Z,8.74
2019-05-29T08:29:33.008Z,8.89
2019-05-29T08:30:33.001Z,8.84
2019-05-29T08:31:32.986Z,8.94
2019-05-29T08:32:33.017Z,8.79
2019-05-29T08:33:32.953Z,8.96
2019-05-29T08:34:32.942Z,8.89
2019-05-29T08:35:32.921Z,8.95
2019-05-29T08:36:32.909Z,8.99
2019-05-29T08:37:32.897Z,8.98
2019-05-29T08:38:32.879Z,8.94
2019-05-29T08:39:36.600Z,9.10
2019-05-29T08:40:32.847Z,9.10
2019-05-29T08:41:32.838Z,9.05
2019-05-29T08:42:32.825Z,9.26
2019-05-29T08:43:32.804Z,9.23
2019-05-29T08:44:32.790Z,9.21
2019-05-29T08:45:32.783Z,9.23
2019-05-29T08:46:33.586Z,9.26
2019-05-29T08:47:32.752Z,9.32
2019-05-29T08:48:32.742Z,9.24
2019-05-29T08:49:32.721Z,9.21
2019-05-29T08:50:32.703Z,9.20
2019-05-29T08:51:32.687Z,9.08
2019-05-29T08:52:32.674Z,9.20
2019-05-29T08:53:32.658Z,9.17
2019-05-29T08:54:32.651Z,9.18
2019-05-29T08:55:32.629Z,9.23
2019-05-29T08:56:32.610Z,9.13
2019-05-29T08:57:32.598Z,9.10
2019-05-29T08:58:32.582Z,9.10
2019-05-29T08:59:32.568Z,9.11
2019-05-29T09:00:32.555Z,9.10
2019-05-29T09:01:32.540Z,9.08
2019-05-29T09:02:32.522Z,9.15
2019-05-29T09:03:32.516Z,9.21
2019-05-29T09:04:32.494Z,9.23
2019-05-29T09:05:32.489Z,9.23
2019-05-29T09:06:32.485Z,9.26
2019-05-29T09:07:32.446Z,9.24
2019-05-29T09:08:32.437Z,9.17
2019-05-29T09:09:32.425Z,9.14
2019-05-29T09:10:32.402Z,9.15
2019-05-29T09:11:32.392Z,9.10
2019-05-29T09:12:32.379Z,9.04
2019-05-29T09:13:32.362Z,9.14
2019-05-29T09:14:32.348Z,9.11
2019-05-29T09:15:32.332Z,9.10
2019-05-29T09:16:32.392Z,9.01
2019-05-29T09:17:34.497Z,8.96
2019-05-29T09:18:32.288Z,8.94
2019-05-29T09:19:32.276Z,8.96
2019-05-29T09:21:00.081Z,8.87
2019-05-29T09:21:32.246Z,8.92
2019-05-29T09:22:32.228Z,8.89
2019-05-29T09:23:32.214Z,8.89
2019-05-29T09:24:32.198Z,8.80
2019-05-29T09:25:32.183Z,8.79
2019-05-29T09:26:32.173Z,8.79
2019-05-29T09:27:32.154Z,8.89
2019-05-29T09:28:32.145Z,8.77
2019-05-29T09:29:32.125Z,8.92
2019-05-29T09:30:32.113Z,8.94
2019-05-29T09:31:32.094Z,9.01
2019-05-29T09:32:46.437Z,9.02
2019-05-29T09:33:32.066Z,9.05
2019-05-29T09:34:32.053Z,9.05
2019-05-29T09:35:32.038Z,9.05
2019-05-29T09:36:32.021Z,9.11
2019-05-29T09:37:32.015Z,9.18
2019-05-29T09:38:31.994Z,9.23
2019-05-29T09:39:31.982Z,9.26
2019-05-29T09:40:31.964Z,9.26
2019-05-29T09:41:31.947Z,9.28
2019-05-29T09:42:31.934Z,9.32
2019-05-29T09:43:31.918Z,9.31
2019-05-29T09:44:38.944Z,9.35
2019-05-29T09:45:31.901Z,9.42
2019-05-29T09:46:31.876Z,9.40
2019-05-29T09:47:31.863Z,9.51
2019-05-29T09:48:31.848Z,9.57
2019-05-29T09:49:31.828Z,9.64
2019-05-29T09:50:48.855Z,9.71
2019-05-29T09:51:31.801Z,9.78
2019-05-29T09:52:31.790Z,9.76
2019-05-29T09:53:31.768Z,9.83
2019-05-29T09:54:31.849Z,9.89
2019-05-29T09:55:31.742Z,9.94
2019-05-29T09:56:31.727Z,9.91
2019-05-29T09:57:31.716Z,9.96
2019-05-29T09:58:31.702Z,10.01
2019-05-29T09:59:31.691Z,10.09
2019-05-29T10:00:31.672Z,10.07
2019-05-29T10:01:31.655Z,10.08
2019-05-29T10:02:31.644Z,10.14
2019-05-29T10:03:31.626Z,10.22
2019-05-29T10:04:31.617Z,10.22
2019-05-29T10:05:31.593Z,10.29
2019-05-29T10:06:31.591Z,10.32
2019-05-29T10:07:31.605Z,10.32
2019-05-29T10:08:31.554Z,10.22
2019-05-29T10:09:31.540Z,10.09
2019-05-29T10:10:31.527Z,10.17
2019-05-29T10:11:31.512Z,10.15
2019-05-29T10:12:31.501Z,10.12
2019-05-29T10:13:31.483Z,10.08
2019-05-29T10:14:31.468Z,10.11
2019-05-29T10:15:31.454Z,10.14
2019-05-29T10:16:31.454Z,10.11
2019-05-29T10:17:31.425Z,10.18
2019-05-29T10:18:32.898Z,10.14
2019-05-29T10:19:31.407Z,10.02
2019-05-29T10:20:31.381Z,9.97
2019-05-29T10:21:40.290Z,10.04
2019-05-29T10:22:31.352Z,10.07
2019-05-29T10:23:31.343Z,10.14
2019-05-29T10:24:32.517Z,10.08
2019-05-29T10:25:31.313Z,10.12
2019-05-29T10:26:31.299Z,10.12
2019-05-29T10:27:31.282Z,10.15
2019-05-29T10:28:49.412Z,10.17
2019-05-29T10:29:31.253Z,10.18
2019-05-29T10:30:31.276Z,10.12
2019-05-29T10:31:31.227Z,10.15
2019-05-29T10:32:31.213Z,10.02
2019-05-29T10:33:31.215Z,10.15
2019-05-29T10:34:31.184Z,10.02
2019-05-29T10:35:31.175Z,9.91
2019-05-29T10:36:31.155Z,9.89
2019-05-29T10:37:31.171Z,9.79
2019-05-29T10:38:31.134Z,9.78
2019-05-29T10:39:31.111Z,9.79
2019-05-29T10:40:31.105Z,9.83
2019-05-29T10:41:31.087Z,9.93
2019-05-29T10:42:31.063Z,9.89
2019-05-29T10:43:34.670Z,9.94
2019-05-29T10:44:31.041Z,9.97
2019-05-29T10:45:31.034Z,9.91
2019-05-29T10:46:31.013Z,9.84
2019-05-29T10:47:30.998Z,9.83
2019-05-29T10:48:30.983Z,9.93
2019-05-29T10:49:30.966Z,9.86
2019-05-29T10:50:30.952Z,9.89
2019-05-29T10:51:30.943Z,9.96
2019-05-29T10:52:30.927Z,9.96
2019-05-29T10:53:30.911Z,9.91
2019-05-29T10:54:30.902Z,9.87
2019-05-29T10:55:30.889Z,9.93
2019-05-29T10:56:30.873Z,9.89
2019-05-29T10:57:30.861Z,9.93
2019-05-29T10:58:45.825Z,9.94
2019-05-29T10:59:30.824Z,9.94
2019-05-29T11:00:30.807Z,10.02
2019-05-29T11:01:30.797Z,9.99
2019-05-29T11:02:30.796Z,9.99
2019-05-29T11:03:30.771Z,10.01
2019-05-29T11:04:30.750Z,10.05
2019-05-29T11:05:30.736Z,10.04
2019-05-29T11:06:30.728Z,9.97
2019-05-29T11:07:30.716Z,10.05
2019-05-29T11:08:30.698Z,9.99
2019-05-29T11:09:43.394Z,10.02
2019-05-29T11:10:30.670Z,9.93
2019-05-29T11:11:30.662Z,9.97
2019-05-29T11:12:30.639Z,10.12
2019-05-29T11:13:30.623Z,10.11
2019-05-29T11:14:30.608Z,10.20
2019-05-29T11:15:30.593Z,10.07
2019-05-29T11:16:30.584Z,10.11
2019-05-29T11:17:30.569Z,10.09
2019-05-29T11:18:30.549Z,10.15
2019-05-29T11:19:30.543Z,10.11
2019-05-29T11:20:30.525Z,10.18
2019-05-29T11:21:30.750Z,10.23
2019-05-29T11:22:30.502Z,10.30
2019-05-29T11:23:30.482Z,10.26
2019-05-29T11:24:30.468Z,10.42
2019-05-29T11:25:30.451Z,10.40
2019-05-29T11:26:30.517Z,10.44
2019-05-29T11:27:30.421Z,10.42
2019-05-29T11:28:30.409Z,10.40
2019-05-29T11:29:30.398Z,10.36
2019-05-29T11:30:30.397Z,10.42
2019-05-29T11:31:30.404Z,10.42
2019-05-29T11:32:30.360Z,10.45
2019-05-29T11:33:30.342Z,10.45
2019-05-29T11:34:30.328Z,10.44
2019-05-29T11:35:30.310Z,10.48
2019-05-29T11:36:30.305Z,10.51
2019-05-29T11:37:30.284Z,10.55
2019-05-29T11:38:30.270Z,10.55
2019-05-29T11:39:30.252Z,10.67
2019-05-29T11:40:30.558Z,10.56
2019-05-29T11:41:30.223Z,10.63
2019-05-29T11:42:30.217Z,10.68
2019-05-29T11:43:30.199Z,10.68
2019-05-29T11:44:30.196Z,10.70
2019-05-29T11:45:30.319Z,10.67
2019-05-29T11:46:30.155Z,10.82
2019-05-29T11:47:30.148Z,10.92
2019-05-29T11:48:30.132Z,10.97
2019-05-29T11:49:30.113Z,11.04
2019-05-29T11:50:30.109Z,11.24
2019-05-29T11:51:30.084Z,11.25
2019-05-29T11:52:42.301Z,11.32
2019-05-29T11:53:30.055Z,11.29
2019-05-29T11:54:30.045Z,11.14
2019-05-29T11:55:30.042Z,11.24
2019-05-29T11:56:30.020Z,11.17
2019-05-29T11:57:30.005Z,11.11
2019-05-29T11:58:31.594Z,11.17
2019-05-29T11:59:29.977Z,11.21
2019-05-29T12:00:29.958Z,11.14
2019-05-29T12:01:48.626Z,11.15
2019-05-29T12:02:29.937Z,11.10
2019-05-29T12:03:29.932Z,11.09
2019-05-29T12:04:29.905Z,11.07
2019-05-29T12:05:29.894Z,11.06
2019-05-29T12:06:29.878Z,11.07
2019-05-29T12:07:29.864Z,11.14
2019-05-29T12:08:29.849Z,11.17
2019-05-29T12:09:33.420Z,11.10
2019-05-29T12:10:29.822Z,11.15
2019-05-29T12:11:29.806Z,11.18
2019-05-29T12:12:29.798Z,11.22
2019-05-29T12:13:29.782Z,11.19
2019-05-29T12:14:29.766Z,11.27
2019-05-29T12:15:29.755Z,11.32
2019-05-29T12:16:29.743Z,11.44
2019-05-29T12:17:29.724Z,11.43
2019-05-29T12:18:29.719Z,11.43
2019-05-29T12:19:29.705Z,11.44
2019-05-29T12:20:29.685Z,11.40
2019-05-29T12:21:29.674Z,11.36
2019-05-29T12:22:29.662Z,11.35
2019-05-29T12:23:29.647Z,11.42
2019-05-29T12:24:29.639Z,11.40
2019-05-29T12:25:29.622Z,11.44
2019-05-29T12:26:29.610Z,11.54
2019-05-29T12:27:29.584Z,11.55
2019-05-29T12:28:29.603Z,11.60
2019-05-29T12:29:29.562Z,11.65
2019-05-29T12:30:29.555Z,11.75
2019-05-29T12:31:29.539Z,11.85
2019-05-29T12:32:29.527Z,11.90
2019-05-29T12:33:29.518Z,11.88
2019-05-29T12:34:29.494Z,11.80
2019-05-29T12:35:29.480Z,11.80
2019-05-29T12:36:29.468Z,11.70
2019-05-29T12:37:29.454Z,11.57
2019-05-29T12:38:29.440Z,11.65
2019-05-29T12:39:29.429Z,11.52
2019-05-29T12:40:29.417Z,11.52
2019-05-29T12:41:29.399Z,11.44
2019-05-29T12:42:29.400Z,11.42
2019-05-29T12:43:29.377Z,11.40
2019-05-29T12:44:29.365Z,11.35
2019-05-29T12:45:29.345Z,11.43
2019-05-29T12:46:29.354Z,11.37
2019-05-29T12:47:29.320Z,11.39
2019-05-29T12:48:29.307Z,11.32
2019-05-29T12:49:29.300Z,11.21
2019-05-29T12:50:29.287Z,11.17
2019-05-29T12:51:29.274Z,11.04
2019-05-29T12:52:29.255Z,10.92
2019-05-29T12:53:31.129Z,10.92
2019-05-29T12:54:29.226Z,10.79
2019-05-29T12:55:29.208Z,10.73
2019-05-29T12:56:29.191Z,10.73
2019-05-29T12:57:29.188Z,10.64
2019-05-29T12:58:29.184Z,10.59
2019-05-29T12:59:29.159Z,10.53
2019-05-29T13:00:29.147Z,10.56
2019-05-29T13:01:29.133Z,10.45
2019-05-29T13:02:29.118Z,10.36
2019-05-29T13:03:29.102Z,10.30
2019-05-29T13:04:29.087Z,10.22
2019-05-29T13:05:29.077Z,10.20
2019-05-29T13:06:29.065Z,10.14
2019-05-29T13:07:29.058Z,10.15
2019-05-29T13:08:29.032Z,10.14
2019-05-29T13:09:29.021Z,10.12
2019-05-29T13:10:31.115Z,10.08
2019-05-29T13:11:28.993Z,10.12
2019-05-29T13:12:28.973Z,10.18
2019-05-29T13:13:28.961Z,10.01